sensor_id;sensor_type;location;lat;lon;timestamp;pressure;altitude;pressure_sealevel;temperature;humidity
75855;BME280;64502;59.976;30.316;2022-12-29T00:01:38;100972.38;;;0.46;69.94
75855;BME280;64502;59.976;30.316;2022-12-29T00:04:04;100966.31;;;0.43;69.04
75855;BME280;64502;59.976;30.316;2022-12-29T00:06:30;100975.88;;;0.41;68.42
75855;BME280;64502;59.976;30.316;2022-12-29T00:08:56;100978.47;;;0.41;70.02
75855;BME280;64502;59.976;30.316;2022-12-29T00:11:25;100975.88;;;0.41;68.18
75855;BME280;64502;59.976;30.316;2022-12-29T00:13:51;100978.50;;;0.40;69.47
75855;BME280;64502;59.976;30.316;2022-12-29T00:16:36;100980.22;;;0.38;69.10
75855;BME280;64502;59.976;30.316;2022-12-29T00:19:03;100982.00;;;0.36;69.20
75855;BME280;64502;59.976;30.316;2022-12-29T00:21:28;100988.06;;;0.36;69.67
75855;BME280;64502;59.976;30.316;2022-12-29T00:24:21;100982.84;;;0.38;69.63
75855;BME280;64502;59.976;30.316;2022-12-29T00:29:49;100989.72;;;0.42;70.61
75855;BME280;64502;59.976;30.316;2022-12-29T00:32:33;100984.56;;;0.39;70.25
75855;BME280;64502;59.976;30.316;2022-12-29T00:35:39;100994.06;;;0.41;69.08
75855;BME280;64502;59.976;30.316;2022-12-29T00:38:07;100996.66;;;0.40;69.69
75855;BME280;64502;59.976;30.316;2022-12-29T00:40:51;100996.66;;;0.41;70.20
75855;BME280;64502;59.976;30.316;2022-12-29T00:43:35;101000.97;;;0.42;70.09
75855;BME280;64502;59.976;30.316;2022-12-29T00:46:19;100997.47;;;0.43;70.10
75855;BME280;64502;59.976;30.316;2022-12-29T00:48:45;101006.16;;;0.42;70.46
75855;BME280;64502;59.976;30.316;2022-12-29T00:51:29;101002.69;;;0.42;70.96
75855;BME280;64502;59.976;30.316;2022-12-29T00:53:54;101009.63;;;0.40;69.51
75855;BME280;64502;59.976;30.316;2022-12-29T00:56:20;101004.47;;;0.38;69.83
75855;BME280;64502;59.976;30.316;2022-12-29T00:58:45;101005.34;;;0.37;69.26
75855;BME280;64502;59.976;30.316;2022-12-29T01:01:10;101007.97;;;0.34;69.90
75855;BME280;64502;59.976;30.316;2022-12-29T01:03:37;101007.97;;;0.36;69.33
75855;BME280;64502;59.976;30.316;2022-12-29T01:06:04;101007.09;;;0.35;69.68
75855;BME280;64502;59.976;30.316;2022-12-29T01:08:30;101007.09;;;0.35;69.99
75855;BME280;64502;59.976;30.316;2022-12-29T01:11:12;101008.78;;;0.39;69.60
75855;BME280;64502;59.976;30.316;2022-12-29T01:13:38;101002.78;;;0.36;70.19
75855;BME280;64502;59.976;30.316;2022-12-29T01:16:06;101007.94;;;0.37;69.89
75855;BME280;64502;59.976;30.316;2022-12-29T01:18:32;101003.63;;;0.36;69.72
75855;BME280;64502;59.976;30.316;2022-12-29T01:20:59;101007.97;;;0.34;69.86
75855;BME280;64502;59.976;30.316;2022-12-29T01:23:25;101007.97;;;0.34;70.45
75855;BME280;64502;59.976;30.316;2022-12-29T01:25:50;100992.41;;;0.34;70.10
75855;BME280;64502;59.976;30.316;2022-12-29T01:28:16;100996.66;;;0.40;70.94
75855;BME280;64502;59.976;30.316;2022-12-29T01:30:41;100994.03;;;0.44;70.33
75855;BME280;64502;59.976;30.316;2022-12-29T01:33:06;100994.78;;;0.53;70.63
75855;BME280;64502;59.976;30.316;2022-12-29T01:35:32;101005.16;;;0.53;69.82
75855;BME280;64502;59.976;30.316;2022-12-29T01:37:57;101009.47;;;0.54;68.76
75855;BME280;64502;59.976;30.316;2022-12-29T01:40:23;101007.78;;;0.51;69.41
75855;BME280;64502;59.976;30.316;2022-12-29T01:42:49;101007.81;;;0.48;69.02
75855;BME280;64502;59.976;30.316;2022-12-29T01:45:16;101000.88;;;0.50;68.73
75855;BME280;64502;59.976;30.316;2022-12-29T01:48:15;101000.88;;;0.50;68.79
75855;BME280;64502;59.976;30.316;2022-12-29T01:50:37;101004.28;;;0.55;68.96
75855;BME280;64502;59.976;30.316;2022-12-29T01:53:22;100997.28;;;0.59;69.70
75855;BME280;64502;59.976;30.316;2022-12-29T01:55:54;100999.84;;;0.62;68.05
75855;BME280;64502;59.976;30.316;2022-12-29T01:58:22;100997.25;;;0.63;69.54
75855;BME280;64502;59.976;30.316;2022-12-29T02:00:50;101007.59;;;0.66;68.98
75855;BME280;64502;59.976;30.316;2022-12-29T02:03:17;101010.09;;;0.73;69.51
75855;BME280;64502;59.976;30.316;2022-12-29T02:05:49;101005.81;;;0.72;68.74
75855;BME280;64502;59.976;30.316;2022-12-29T02:08:16;101014.44;;;0.72;69.19
75855;BME280;64502;59.976;30.316;2022-12-29T02:10:43;101014.44;;;0.72;68.64
75855;BME280;64502;59.976;30.316;2022-12-29T02:13:09;101006.75;;;0.66;68.10
75855;BME280;64502;59.976;30.316;2022-12-29T02:18:13;101010.25;;;0.62;68.88
75855;BME280;64502;59.976;30.316;2022-12-29T02:28:59;101008.47;;;0.65;68.92
75855;BME280;64502;59.976;30.316;2022-12-29T02:34:40;101017.09;;;0.69;67.73
75855;BME280;64502;59.976;30.316;2022-12-29T02:37:14;101018.78;;;0.70;66.30
75855;BME280;64502;59.976;30.316;2022-12-29T02:45:00;101013.81;;;0.52;67.37
75855;BME280;64502;59.976;30.316;2022-12-29T02:47:39;101012.91;;;0.56;68.33
75855;BME280;64502;59.976;30.316;2022-12-29T02:50:14;101016.31;;;0.59;67.78
75855;BME280;64502;59.976;30.316;2022-12-29T02:52:46;101018.88;;;0.62;68.21
75855;BME280;64502;59.976;30.316;2022-12-29T02:55:13;101016.22;;;0.69;68.45
75855;BME280;64502;59.976;30.316;2022-12-29T02:57:38;101011.81;;;0.75;68.85
75855;BME280;64502;59.976;30.316;2022-12-29T03:00:13;101020.34;;;0.83;67.25
75855;BME280;64502;59.976;30.316;2022-12-29T03:05:33;101023.91;;;0.78;67.15
75855;BME280;64502;59.976;30.316;2022-12-29T03:10:41;101023.22;;;0.62;66.86
75855;BME280;64502;59.976;30.316;2022-12-29T03:16:44;101027.56;;;0.60;66.07
75855;BME280;64502;59.976;30.316;2022-12-29T03:19:30;101024.97;;;0.60;67.84
75855;BME280;64502;59.976;30.316;2022-12-29T03:22:07;101031.88;;;0.62;68.02
75855;BME280;64502;59.976;30.316;2022-12-29T03:25:05;101033.50;;;0.71;68.24
75855;BME280;64502;59.976;30.316;2022-12-29T03:27:47;101026.47;;;0.79;67.73
75855;BME280;64502;59.976;30.316;2022-12-29T03:30:14;101026.41;;;0.84;68.24
75855;BME280;64502;59.976;30.316;2022-12-29T03:32:44;101018.56;;;0.87;67.71
75855;BME280;64502;59.976;30.316;2022-12-29T03:35:12;101022.00;;;0.89;67.81
75855;BME280;64502;59.976;30.316;2022-12-29T03:37:58;101027.16;;;0.94;67.25
75855;BME280;64502;59.976;30.316;2022-12-29T03:40:25;101021.06;;;0.96;68.19
75855;BME280;64502;59.976;30.316;2022-12-29T03:42:52;101026.16;;;1.01;68.48
75855;BME280;64502;59.976;30.316;2022-12-29T03:45:19;101019.22;;;1.03;67.95
75855;BME280;64502;59.976;30.316;2022-12-29T03:47:44;101030.44;;;1.06;67.79
75855;BME280;64502;59.976;30.316;2022-12-29T03:50:12;101023.50;;;1.07;67.54
75855;BME280;64502;59.976;30.316;2022-12-29T03:52:38;101015.72;;;1.05;67.20
75855;BME280;64502;59.976;30.316;2022-12-29T03:55:04;101012.28;;;1.03;66.97
75855;BME280;64502;59.976;30.316;2022-12-29T03:57:29;101019.22;;;1.03;66.56
75855;BME280;64502;59.976;30.316;2022-12-29T03:59:55;101025.34;;;0.99;65.69
75855;BME280;64502;59.976;30.316;2022-12-29T04:02:20;101020.25;;;0.89;66.77
75855;BME280;64502;59.976;30.316;2022-12-29T04:04:46;101027.34;;;0.78;67.17
75855;BME280;64502;59.976;30.316;2022-12-29T04:07:11;101019.66;;;0.71;67.41
75855;BME280;64502;59.976;30.316;2022-12-29T04:09:36;101018.84;;;0.67;67.84
75855;BME280;64502;59.976;30.316;2022-12-29T04:12:02;101018.03;;;0.63;67.72
75855;BME280;64502;59.976;30.316;2022-12-29T04:14:27;101018.88;;;0.62;67.78
75855;BME280;64502;59.976;30.316;2022-12-29T04:16:53;101014.56;;;0.63;68.12
75855;BME280;64502;59.976;30.316;2022-12-29T04:19:18;101017.97;;;0.65;68.42
75855;BME280;64502;59.976;30.316;2022-12-29T04:21:44;101016.28;;;0.64;68.40
75855;BME280;64502;59.976;30.316;2022-12-29T04:24:09;101024.88;;;0.68;69.05
75855;BME280;64502;59.976;30.316;2022-12-29T04:26:34;101022.28;;;0.69;68.35
75855;BME280;64502;59.976;30.316;2022-12-29T04:29:00;101030.03;;;0.72;69.22
75855;BME280;64502;59.976;30.316;2022-12-29T04:31:25;101028.28;;;0.74;68.02
75855;BME280;64502;59.976;30.316;2022-12-29T04:33:51;101028.25;;;0.76;69.00
75855;BME280;64502;59.976;30.316;2022-12-29T04:36:16;101019.53;;;0.80;68.55
75855;BME280;64502;59.976;30.316;2022-12-29T04:38:41;101025.56;;;0.83;68.68
75855;BME280;64502;59.976;30.316;2022-12-29T04:41:07;101023.78;;;0.85;68.62
75855;BME280;64502;59.976;30.316;2022-12-29T04:43:32;101026.34;;;0.87;68.47
75855;BME280;64502;59.976;30.316;2022-12-29T04:45:58;101028.94;;;0.90;68.46
75855;BME280;64502;59.976;30.316;2022-12-29T04:48:23;101030.59;;;0.93;69.04
75855;BME280;64502;59.976;30.316;2022-12-29T04:50:49;101026.25;;;0.96;68.64
75855;BME280;64502;59.976;30.316;2022-12-29T04:53:15;101027.06;;;1.00;68.87
75855;BME280;64502;59.976;30.316;2022-12-29T04:55:41;101022.72;;;1.00;68.52
75855;BME280;64502;59.976;30.316;2022-12-29T04:58:07;101027.91;;;1.02;67.89
75855;BME280;64502;59.976;30.316;2022-12-29T05:00:32;101027.88;;;1.03;68.19
75855;BME280;64502;59.976;30.316;2022-12-29T05:02:57;101031.34;;;1.02;68.04
75855;BME280;64502;59.976;30.316;2022-12-29T05:05:23;101026.16;;;1.04;67.79
75855;BME280;64502;59.976;30.316;2022-12-29T05:07:48;101022.66;;;1.05;68.24
75855;BME280;64502;59.976;30.316;2022-12-29T05:10:14;101025.22;;;1.08;67.98
75855;BME280;64502;59.976;30.316;2022-12-29T05:12:39;101018.25;;;1.10;68.00
75855;BME280;64502;59.976;30.316;2022-12-29T05:15:06;101025.09;;;1.16;67.80
75855;BME280;64502;59.976;30.316;2022-12-29T05:20:41;101037.09;;;1.24;67.85
75855;BME280;64502;59.976;30.316;2022-12-29T05:23:06;101032.75;;;1.26;67.71
75855;BME280;64502;59.976;30.316;2022-12-29T05:25:31;101029.25;;;1.27;67.58
75855;BME280;64502;59.976;30.316;2022-12-29T05:27:57;101028.34;;;1.30;67.75
75855;BME280;64502;59.976;30.316;2022-12-29T05:30:22;101025.75;;;1.31;67.98
75855;BME280;64502;59.976;30.316;2022-12-29T05:32:48;101022.25;;;1.32;67.28
75855;BME280;64502;59.976;30.316;2022-12-29T05:35:13;101028.31;;;1.33;67.62
75855;BME280;64502;59.976;30.316;2022-12-29T05:37:39;101035.25;;;1.32;68.01
75855;BME280;64502;59.976;30.316;2022-12-29T05:40:04;101037.84;;;1.32;68.07
75855;BME280;64502;59.976;30.316;2022-12-29T05:42:30;101031.81;;;1.30;68.05
75855;BME280;64502;59.976;30.316;2022-12-29T05:44:56;101041.34;;;1.31;67.63
75855;BME280;64502;59.976;30.316;2022-12-29T05:47:21;101035.28;;;1.31;68.36
75855;BME280;64502;59.976;30.316;2022-12-29T05:49:47;101031.81;;;1.30;67.50
75855;BME280;64502;59.976;30.316;2022-12-29T05:52:43;101030.91;;;1.33;68.37
75855;BME280;64502;59.976;30.316;2022-12-29T05:55:09;101038.75;;;1.30;67.50
75855;BME280;64502;59.976;30.316;2022-12-29T05:57:35;101045.81;;;1.23;68.14
75855;BME280;64502;59.976;30.316;2022-12-29T06:00:01;101041.41;;;1.27;68.31
75855;BME280;64502;59.976;30.316;2022-12-29T06:02:26;101039.59;;;1.30;67.95
75855;BME280;64502;59.976;30.316;2022-12-29T06:04:51;101038.72;;;1.33;67.29
75855;BME280;64502;59.976;30.316;2022-12-29T06:07:17;101055.16;;;1.33;67.45
75855;BME280;64502;59.976;30.316;2022-12-29T06:09:42;101050.84;;;1.34;68.22
75855;BME280;64502;59.976;30.316;2022-12-29T06:12:09;101042.13;;;1.37;67.58
75855;BME280;64502;59.976;30.316;2022-12-29T06:14:34;101048.19;;;1.37;67.62
75855;BME280;64502;59.976;30.316;2022-12-29T06:17:00;101046.44;;;1.39;67.66
75855;BME280;64502;59.976;30.316;2022-12-29T06:19:25;101048.16;;;1.39;68.08
75855;BME280;64502;59.976;30.316;2022-12-29T06:21:51;101043.84;;;1.38;67.42
75855;BME280;64502;59.976;30.316;2022-12-29T06:24:17;101042.16;;;1.35;68.08
75855;BME280;64502;59.976;30.316;2022-12-29T06:26:43;101048.31;;;1.29;66.81
75855;BME280;64502;59.976;30.316;2022-12-29T06:29:08;101041.41;;;1.28;67.32
75855;BME280;64502;59.976;30.316;2022-12-29T06:31:34;101044.94;;;1.23;67.55
75855;BME280;64502;59.976;30.316;2022-12-29T06:33:59;101043.25;;;1.20;68.04
75855;BME280;64502;59.976;30.316;2022-12-29T06:36:25;101045.91;;;1.14;67.40
75855;BME280;64502;59.976;30.316;2022-12-29T06:38:50;101046.84;;;1.10;67.83
75855;BME280;64502;59.976;30.316;2022-12-29T06:41:18;101041.69;;;1.05;68.34
75855;BME280;64502;59.976;30.316;2022-12-29T06:43:44;101045.19;;;1.03;68.47
75855;BME280;64502;59.976;30.316;2022-12-29T06:46:09;101039.19;;;0.99;69.13
75855;BME280;64502;59.976;30.316;2022-12-29T06:48:35;101056.59;;;0.93;68.80
75855;BME280;64502;59.976;30.316;2022-12-29T06:51:00;101047.97;;;0.89;68.77
75855;BME280;64502;59.976;30.316;2022-12-29T06:53:26;101050.63;;;0.86;69.15
75855;BME280;64502;59.976;30.316;2022-12-29T06:55:52;101057.56;;;0.85;69.33
75855;BME280;64502;59.976;30.316;2022-12-29T06:58:17;101043.72;;;0.85;68.17
75855;BME280;64502;59.976;30.316;2022-12-29T07:00:43;101062.72;;;0.87;69.06
75855;BME280;64502;59.976;30.316;2022-12-29T07:03:08;101051.44;;;0.89;68.75
75855;BME280;64502;59.976;30.316;2022-12-29T07:05:34;101047.94;;;0.92;69.06
75855;BME280;64502;59.976;30.316;2022-12-29T07:07:59;101050.53;;;0.94;69.04
75855;BME280;64502;59.976;30.316;2022-12-29T07:10:25;101053.94;;;0.97;69.56
75855;BME280;64502;59.976;30.316;2022-12-29T07:12:51;101053.00;;;1.03;68.72
75855;BME280;64502;59.976;30.316;2022-12-29T07:15:16;101048.66;;;1.05;69.20
75855;BME280;64502;59.976;30.316;2022-12-29T07:17:42;101048.59;;;1.08;68.80
75855;BME280;64502;59.976;30.316;2022-12-29T07:20:08;101047.72;;;1.09;69.24
75855;BME280;64502;59.976;30.316;2022-12-29T07:22:34;101051.19;;;1.08;69.32
75855;BME280;64502;59.976;30.316;2022-12-29T07:24:59;101056.44;;;1.06;67.96
75855;BME280;64502;59.976;30.316;2022-12-29T07:27:25;101063.44;;;1.00;68.19
75855;BME280;64502;59.976;30.316;2022-12-29T07:29:50;101072.16;;;0.94;68.91
75855;BME280;64502;59.976;30.316;2022-12-29T07:32:15;101067.88;;;0.92;69.08
75855;BME280;64502;59.976;30.316;2022-12-29T07:34:41;101069.56;;;0.93;69.42
75855;BME280;64502;59.976;30.316;2022-12-29T07:37:06;101068.72;;;0.94;69.55
75855;BME280;64502;59.976;30.316;2022-12-29T07:39:32;101070.41;;;0.96;69.36
75855;BME280;64502;59.976;30.316;2022-12-29T07:41:57;101077.38;;;0.96;69.89
75855;BME280;64502;59.976;30.316;2022-12-29T07:44:23;101086.88;;;0.97;70.03
75855;BME280;64502;59.976;30.316;2022-12-29T07:46:48;101091.13;;;1.01;69.90
75855;BME280;64502;59.976;30.316;2022-12-29T07:49:14;101091.13;;;1.04;69.32
75855;BME280;64502;59.976;30.316;2022-12-29T07:51:39;101090.19;;;1.08;69.49
75855;BME280;64502;59.976;30.316;2022-12-29T07:54:04;101093.63;;;1.10;69.57
75855;BME280;64502;59.976;30.316;2022-12-29T07:56:30;101091.88;;;1.12;69.07
75855;BME280;64502;59.976;30.316;2022-12-29T07:58:55;101086.69;;;1.12;69.15
75855;BME280;64502;59.976;30.316;2022-12-29T08:01:21;101078.88;;;1.12;69.48
75855;BME280;64502;59.976;30.316;2022-12-29T08:03:48;101072.84;;;1.08;69.25
75855;BME280;64502;59.976;30.316;2022-12-29T08:06:14;101059.03;;;1.06;69.52
75855;BME280;64502;59.976;30.316;2022-12-29T08:08:39;101065.13;;;1.04;69.91
75855;BME280;64502;59.976;30.316;2022-12-29T08:11:05;101058.19;;;1.04;70.39
75855;BME280;64502;59.976;30.316;2022-12-29T08:13:30;101058.19;;;1.03;69.66
75855;BME280;64502;59.976;30.316;2022-12-29T08:15:57;101064.28;;;1.02;69.96
75855;BME280;64502;59.976;30.316;2022-12-29T08:18:23;101064.38;;;0.96;70.33
75855;BME280;64502;59.976;30.316;2022-12-29T08:20:49;101060.13;;;0.88;70.38
75855;BME280;64502;59.976;30.316;2022-12-29T08:23:14;101057.63;;;0.81;70.31
75855;BME280;64502;59.976;30.316;2022-12-29T08:25:40;101055.09;;;0.73;70.33
75855;BME280;64502;59.976;30.316;2022-12-29T08:28:05;101056.97;;;0.62;70.05
75855;BME280;64502;59.976;30.316;2022-12-29T08:30:31;101057.94;;;0.55;70.66
75855;BME280;64502;59.976;30.316;2022-12-29T08:32:56;101056.25;;;0.52;70.91
75855;BME280;64502;59.976;30.316;2022-12-29T08:35:22;101045.84;;;0.51;70.57
75855;BME280;64502;59.976;30.316;2022-12-29T08:37:47;101057.09;;;0.53;70.98
75855;BME280;64502;59.976;30.316;2022-12-29T08:40:13;101057.91;;;0.58;70.68
75855;BME280;64502;59.976;30.316;2022-12-29T08:42:39;101056.13;;;0.63;71.43
75855;BME280;64502;59.976;30.316;2022-12-29T08:45:05;101054.34;;;0.66;71.21
75855;BME280;64502;59.976;30.316;2022-12-29T08:47:30;101051.75;;;0.66;70.76
75855;BME280;64502;59.976;30.316;2022-12-29T08:49:56;101056.03;;;0.69;70.75
75855;BME280;64502;59.976;30.316;2022-12-29T08:52:21;101058.59;;;0.72;70.94
75855;BME280;64502;59.976;30.316;2022-12-29T08:54:48;101067.28;;;0.71;70.62
75855;BME280;64502;59.976;30.316;2022-12-29T08:57:13;101068.97;;;0.72;71.02
75855;BME280;64502;59.976;30.316;2022-12-29T08:59:39;101076.81;;;0.69;70.95
75855;BME280;64502;59.976;30.316;2022-12-29T09:02:05;101074.25;;;0.66;71.04
75855;BME280;64502;59.976;30.316;2022-12-29T09:04:31;101074.25;;;0.66;71.55
75855;BME280;64502;59.976;30.316;2022-12-29T09:06:56;101082.03;;;0.66;71.67
75855;BME280;64502;59.976;30.316;2022-12-29T09:09:22;101080.25;;;0.71;71.34
75855;BME280;64502;59.976;30.316;2022-12-29T09:11:47;101074.94;;;0.79;71.73
75855;BME280;64502;59.976;30.316;2022-12-29T09:14:13;101070.50;;;0.88;72.31
75855;BME280;64502;59.976;30.316;2022-12-29T09:16:40;101069.53;;;0.97;71.95
75855;BME280;64502;59.976;30.316;2022-12-29T09:19:24;101059.94;;;1.04;71.54
75855;BME280;64502;59.976;30.316;2022-12-29T09:21:49;101073.69;;;1.12;71.77
75855;BME280;64502;59.976;30.316;2022-12-29T09:24:15;101069.25;;;1.19;71.02
75855;BME280;64502;59.976;30.316;2022-12-29T09:26:40;101079.63;;;1.20;70.74
75855;BME280;64502;59.976;30.316;2022-12-29T09:29:06;101084.84;;;1.19;71.03
75855;BME280;64502;59.976;30.316;2022-12-29T09:31:31;101078.84;;;1.15;71.01
75855;BME280;64502;59.976;30.316;2022-12-29T09:33:57;101077.09;;;1.16;71.47
75855;BME280;64502;59.976;30.316;2022-12-29T09:36:22;101077.94;;;1.16;71.16
75855;BME280;64502;59.976;30.316;2022-12-29T09:38:48;101077.94;;;1.16;71.42
75855;BME280;64502;59.976;30.316;2022-12-29T09:42:04;101077.88;;;1.21;71.55
75855;BME280;64502;59.976;30.316;2022-12-29T09:44:42;101079.72;;;1.13;71.42
75855;BME280;64502;59.976;30.316;2022-12-29T09:47:13;101069.38;;;1.09;71.86
75855;BME280;64502;59.976;30.316;2022-12-29T09:49:41;101077.22;;;1.05;71.48
75855;BME280;64502;59.976;30.316;2022-12-29T09:52:25;101080.72;;;1.01;71.59
75855;BME280;64502;59.976;30.316;2022-12-29T09:55:01;101081.66;;;0.98;72.01
75855;BME280;64502;59.976;30.316;2022-12-29T10:00:05;101072.13;;;0.99;71.87
75855;BME280;64502;59.976;30.316;2022-12-29T10:02:37;101066.03;;;1.00;71.84
75855;BME280;64502;59.976;30.316;2022-12-29T10:05:31;101069.47;;;1.00;71.65
75855;BME280;64502;59.976;30.316;2022-12-29T10:07:57;101072.97;;;0.99;71.94
75855;BME280;64502;59.976;30.316;2022-12-29T10:13:04;101066.94;;;0.97;71.81
75855;BME280;64502;59.976;30.316;2022-12-29T10:15:54;101066.97;;;0.96;72.21
75855;BME280;64502;59.976;30.316;2022-12-29T10:21:59;101073.09;;;0.88;71.35
75855;BME280;64502;59.976;30.316;2022-12-29T10:24:31;101079.25;;;0.81;71.98
75855;BME280;64502;59.976;30.316;2022-12-29T10:27:00;101075.00;;;0.76;71.85
75855;BME280;64502;59.976;30.316;2022-12-29T10:29:32;101068.97;;;0.74;72.25
75855;BME280;64502;59.976;30.316;2022-12-29T10:32:03;101075.09;;;0.66;72.42
75855;BME280;64502;59.976;30.316;2022-12-29T10:34:44;101057.88;;;0.61;71.80
75855;BME280;64502;59.976;30.316;2022-12-29T10:37:21;101068.28;;;0.58;72.65
75855;BME280;64502;59.976;30.316;2022-12-29T10:39:52;101063.09;;;0.58;72.94
75855;BME280;64502;59.976;30.316;2022-12-29T10:42:40;101064.81;;;0.59;72.27
75855;BME280;64502;59.976;30.316;2022-12-29T10:45:13;101070.81;;;0.62;72.98
75855;BME280;64502;59.976;30.316;2022-12-29T10:47:55;101063.91;;;0.61;72.21
75855;BME280;64502;59.976;30.316;2022-12-29T10:50:25;101067.41;;;0.59;73.25
75855;BME280;64502;59.976;30.316;2022-12-29T10:52:51;101057.91;;;0.58;73.21
75855;BME280;64502;59.976;30.316;2022-12-29T10:55:22;101060.50;;;0.58;72.92
75855;BME280;64502;59.976;30.316;2022-12-29T10:57:52;101054.50;;;0.53;72.78
75855;BME280;64502;59.976;30.316;2022-12-29T11:00:20;101059.69;;;0.53;73.42
75855;BME280;64502;59.976;30.316;2022-12-29T11:05:54;101052.88;;;0.44;73.03
75855;BME280;64502;59.976;30.316;2022-12-29T11:08:25;101052.03;;;0.40;73.13
75855;BME280;64502;59.976;30.316;2022-12-29T11:11:04;101064.13;;;0.43;72.45
75855;BME280;64502;59.976;30.316;2022-12-29T11:13:33;101057.31;;;0.31;73.30
75855;BME280;64502;59.976;30.316;2022-12-29T11:15:58;101066.88;;;0.26;73.40
75855;BME280;64502;59.976;30.316;2022-12-29T11:20:58;101061.75;;;0.21;73.54
75855;BME280;64502;59.976;30.316;2022-12-29T11:23:30;101065.22;;;0.20;73.20
75855;BME280;64502;59.976;30.316;2022-12-29T11:26:21;101068.66;;;0.22;73.33
75855;BME280;64502;59.976;30.316;2022-12-29T11:31:44;101066.09;;;0.18;73.15
75855;BME280;64502;59.976;30.316;2022-12-29T11:37:19;101055.78;;;0.12;73.62
75855;BME280;64502;59.976;30.316;2022-12-29T11:45:15;101053.22;;;0.07;73.88
75855;BME280;64502;59.976;30.316;2022-12-29T11:47:44;101053.28;;;0.06;74.42
75855;BME280;64502;59.976;30.316;2022-12-29T11:50:17;101054.94;;;0.10;74.15
75855;BME280;64502;59.976;30.316;2022-12-29T11:52:44;101054.91;;;0.13;73.93
75855;BME280;64502;59.976;30.316;2022-12-29T11:55:21;101061.78;;;0.20;74.13
75855;BME280;64502;59.976;30.316;2022-12-29T11:57:50;101043.59;;;0.20;74.18
75855;BME280;64502;59.976;30.316;2022-12-29T12:00:22;101035.81;;;0.20;73.92
75855;BME280;64502;59.976;30.316;2022-12-29T12:08:21;101041.97;;;0.10;73.74
75855;BME280;64502;59.976;30.316;2022-12-29T12:11:18;101046.28;;;0.14;73.99
75855;BME280;64502;59.976;30.316;2022-12-29T12:14:10;101051.44;;;0.15;73.14
75855;BME280;64502;59.976;30.316;2022-12-29T12:16:41;101041.94;;;0.13;73.66
75855;BME280;64502;59.976;30.316;2022-12-29T12:22:13;101031.63;;;0.05;73.46
75855;BME280;64502;59.976;30.316;2022-12-29T12:24:42;101035.09;;;0.06;74.17
75855;BME280;64502;59.976;30.316;2022-12-29T12:27:19;101035.16;;;-0.01;74.05
75855;BME280;64502;59.976;30.316;2022-12-29T12:30:04;101038.63;;;-0.02;73.61
75855;BME280;64502;59.976;30.316;2022-12-29T12:32:39;101040.41;;;-0.07;73.60
75855;BME280;64502;59.976;30.316;2022-12-29T12:35:12;101047.34;;;-0.10;73.73
75855;BME280;64502;59.976;30.316;2022-12-29T12:53:44;101023.34;;;-0.34;74.73
75855;BME280;64502;59.976;30.316;2022-12-29T12:59:13;101027.72;;;-0.39;75.46
75855;BME280;64502;59.976;30.316;2022-12-29T13:09:57;101031.97;;;-0.33;75.48
75855;BME280;64502;59.976;30.316;2022-12-29T13:15:33;101027.66;;;-0.31;75.01
75855;BME280;64502;59.976;30.316;2022-12-29T13:18:23;101035.44;;;-0.31;75.46
75855;BME280;64502;59.976;30.316;2022-12-29T13:21:10;101026.78;;;-0.32;75.12
75855;BME280;64502;59.976;30.316;2022-12-29T13:23:44;101027.69;;;-0.33;75.21
75855;BME280;64502;59.976;30.316;2022-12-29T13:28:52;101019.91;;;-0.33;75.05
75855;BME280;64502;59.976;30.316;2022-12-29T13:36:51;101018.16;;;-0.34;75.11
75855;BME280;64502;59.976;30.316;2022-12-29T13:39:19;101018.19;;;-0.35;74.72
75855;BME280;64502;59.976;30.316;2022-12-29T13:41:56;101017.34;;;-0.39;75.55
75855;BME280;64502;59.976;30.316;2022-12-29T13:46:48;101012.22;;;-0.45;75.98
75855;BME280;64502;59.976;30.316;2022-12-29T13:49:19;101014.81;;;-0.47;76.50
75855;BME280;64502;59.976;30.316;2022-12-29T13:51:50;101004.44;;;-0.47;75.69
75855;BME280;64502;59.976;30.316;2022-12-29T14:00:12;101016.53;;;-0.46;75.20
75855;BME280;64502;59.976;30.316;2022-12-29T14:05:31;101005.34;;;-0.49;76.32
75855;BME280;64502;59.976;30.316;2022-12-29T14:08:03;100994.16;;;-0.54;75.90
75855;BME280;64502;59.976;30.316;2022-12-29T14:13:05;101005.34;;;-0.52;76.33
75855;BME280;64502;59.976;30.316;2022-12-29T14:15:37;101003.63;;;-0.52;75.83
75855;BME280;64502;59.976;30.316;2022-12-29T14:18:19;101001.88;;;-0.50;76.86
75855;BME280;64502;59.976;30.316;2022-12-29T14:28:36;101003.59;;;-0.50;77.05
75855;BME280;64502;59.976;30.316;2022-12-29T14:31:04;101002.75;;;-0.51;76.19
75855;BME280;64502;59.976;30.316;2022-12-29T14:33:32;100998.44;;;-0.49;76.52
75855;BME280;64502;59.976;30.316;2022-12-29T14:36:21;100994.97;;;-0.52;75.98
75855;BME280;64502;59.976;30.316;2022-12-29T14:38:49;100986.41;;;-0.59;76.43
75855;BME280;64502;59.976;30.316;2022-12-29T14:44:00;100996.81;;;-0.65;76.71
75855;BME280;64502;59.976;30.316;2022-12-29T14:49:16;100990.75;;;-0.62;77.29
75855;BME280;64502;59.976;30.316;2022-12-29T14:51:43;100983.81;;;-0.60;76.99
75855;BME280;64502;59.976;30.316;2022-12-29T14:57:05;100986.34;;;-0.51;76.52
75855;BME280;64502;59.976;30.316;2022-12-29T14:59:32;100975.94;;;-0.48;76.31
75855;BME280;64502;59.976;30.316;2022-12-29T15:02:01;100975.91;;;-0.47;75.97
75855;BME280;64502;59.976;30.316;2022-12-29T15:04:32;100977.63;;;-0.44;75.40
75855;BME280;64502;59.976;30.316;2022-12-29T15:07:01;100981.09;;;-0.45;76.45
75855;BME280;64502;59.976;30.316;2022-12-29T15:09:36;100986.28;;;-0.45;76.07
75855;BME280;64502;59.976;30.316;2022-12-29T15:14:59;100972.56;;;-0.58;76.46
75855;BME280;64502;59.976;30.316;2022-12-29T15:17:34;100976.03;;;-0.59;75.89
75855;BME280;64502;59.976;30.316;2022-12-29T15:20:14;100968.25;;;-0.59;76.00